Time;durP1;ratioP1;P1;durP2;ratioP2;P2;SDS_P1;SDS_P2;PMS_P1;PMS_P2;Temp;Humidity;BMP_temperature;BMP_pressure;BME280_temperature;BME280_humidity;BME280_pressure;Samples;Min_cycle;Max_cycle;Signal;HPM_P1;HPM_P2
2020/12/31 00:01:27;;;;;;;10.88;4.55;;;;;;;2.27;100.00;100318.97;4953543;28;20050;-82
2020/12/31 00:03:54;;;;;;;7.93;4.45;;;;;;;2.28;100.00;100299.47;4953830;28;20511;-81
2020/12/31 00:06:19;;;;;;;7.13;4.20;;;;;;;2.25;100.00;100299.72;4952857;28;20421;-82
2020/12/31 00:08:45;;;;;;;12.73;4.75;;;;;;;2.25;100.00;100297.06;4969630;28;20482;-82
2020/12/31 00:11:11;;;;;;;10.57;5.07;;;;;;;2.24;100.00;100305.97;4968858;28;20648;-82
2020/12/31 00:13:37;;;;;;;10.98;5.60;;;;;;;2.23;100.00;100305.16;4952848;28;20123;-82
2020/12/31 00:16:04;;;;;;;11.07;5.53;;;;;;;2.23;100.00;100317.53;4952287;28;20041;-81
2020/12/31 00:18:29;;;;;;;14.55;5.85;;;;;;;2.26;100.00;100306.69;4968454;28;20540;-80
2020/12/31 00:20:55;;;;;;;11.30;5.60;;;;;;;2.27;100.00;100311.88;4953639;28;20114;-83
2020/12/31 00:23:20;;;;;;;11.25;5.70;;;;;;;2.29;100.00;100295.84;4952426;28;20024;-83
2020/12/31 00:25:49;;;;;;;9.95;5.57;;;;;;;2.31;100.00;100297.41;4967764;28;20042;-82
2020/12/31 00:28:16;;;;;;;13.07;6.53;;;;;;;2.34;100.00;100291.03;4957714;28;20035;-83
2020/12/31 00:30:43;;;;;;;13.00;5.97;;;;;;;2.37;100.00;100295.25;4970715;28;20034;-83
2020/12/31 00:33:10;;;;;;;12.93;6.47;;;;;;;2.38;100.00;100305.69;4938618;29;20035;-82
2020/12/31 00:35:36;;;;;;;10.90;6.25;;;;;;;2.41;100.00;100296.63;4955123;28;20089;-82
2020/12/31 00:38:01;;;;;;;14.45;5.85;;;;;;;2.40;100.00;100293.16;4954888;28;20030;-83
2020/12/31 00:40:27;;;;;;;11.98;5.78;;;;;;;2.42;100.00;100293.03;4955248;28;20039;-83
2020/12/31 00:42:52;;;;;;;14.20;5.50;;;;;;;2.45;100.00;100290.97;4954375;28;20046;-83
2020/12/31 00:45:18;;;;;;;11.82;5.40;;;;;;;2.46;100.00;100289.16;4955094;28;20034;-82
2020/12/31 00:47:43;;;;;;;18.08;7.65;;;;;;;2.48;100.00;100288.06;4954909;28;20094;-83
2020/12/31 00:50:09;;;;;;;14.40;6.75;;;;;;;2.48;100.00;100290.72;4970260;28;20493;-82
2020/12/31 00:52:34;;;;;;;12.65;6.20;;;;;;;2.46;100.00;100291.81;4953491;28;20034;-83
2020/12/31 00:55:00;;;;;;;12.88;6.15;;;;;;;2.48;100.00;100277.47;4954473;28;20040;-81
2020/12/31 00:57:25;;;;;;;11.52;6.43;;;;;;;2.51;100.00;100276.38;4953423;29;20401;-82
2020/12/31 00:59:51;;;;;;;15.60;6.68;;;;;;;2.49;100.00;100278.31;4953912;28;20035;-83
2020/12/31 01:02:16;;;;;;;15.23;6.20;;;;;;;2.51;100.00;100281.66;4953192;29;20050;-82
2020/12/31 01:04:42;;;;;;;13.40;6.57;;;;;;;2.45;100.00;100277.72;4969206;28;20031;-83
2020/12/31 01:07:07;;;;;;;16.90;7.13;;;;;;;2.48;100.00;100276.66;4953211;28;20110;-82
2020/12/31 01:09:33;;;;;;;13.32;6.57;;;;;;;2.51;100.00;100273.72;4967806;28;20042;-82
2020/12/31 01:11:58;;;;;;;13.82;6.50;;;;;;;2.53;100.00;100271.81;4952470;28;20043;-83
2020/12/31 01:14:23;;;;;;;15.63;7.63;;;;;;;2.54;100.00;100273.47;4951439;28;20401;-82
2020/12/31 01:16:49;;;;;;;15.82;7.43;;;;;;;2.57;100.00;100270.59;4967756;28;20039;-82
2020/12/31 01:19:16;;;;;;;17.52;7.53;;;;;;;2.58;100.00;100270.44;4950990;28;20147;-81
2020/12/31 01:21:44;;;;;;;13.95;7.43;;;;;;;2.60;100.00;100265.84;4951020;28;20516;-83
2020/12/31 01:24:10;;;;;;;18.92;7.93;;;;;;;2.65;100.00;100267.28;4956024;28;20031;-83
2020/12/31 01:26:36;;;;;;;17.27;7.68;;;;;;;2.64;100.00;100261.13;4959381;28;20063;-83
2020/12/31 01:29:02;;;;;;;14.75;7.47;;;;;;;2.67;100.00;100265.34;4958431;28;20031;-83
2020/12/31 01:31:28;;;;;;;16.23;8.25;;;;;;;2.68;100.00;100261.72;4974822;28;20429;-83
2020/12/31 01:33:54;;;;;;;17.75;8.50;;;;;;;2.69;100.00;100268.69;4960119;29;20031;-82
2020/12/31 01:36:19;;;;;;;18.85;8.70;;;;;;;2.70;100.00;100270.38;4959771;28;20047;-82
2020/12/31 01:38:46;;;;;;;16.80;7.63;;;;;;;2.70;100.00;100265.06;4960875;28;20035;-83
2020/12/31 01:41:12;;;;;;;18.40;8.80;;;;;;;2.72;100.00;100258.69;4960776;28;20039;-82
2020/12/31 01:43:38;;;;;;;20.98;8.68;;;;;;;2.72;100.00;100269.28;4959644;28;20126;-82
2020/12/31 01:46:04;;;;;;;19.77;7.70;;;;;;;2.71;100.00;100266.75;4960820;28;20063;-83
2020/12/31 01:48:30;;;;;;;18.92;9.20;;;;;;;2.72;100.00;100266.63;4975154;28;20047;-81
2020/12/31 01:50:56;;;;;;;18.13;8.52;;;;;;;2.71;100.00;100258.81;4974752;28;20476;-83
2020/12/31 01:53:22;;;;;;;19.60;8.88;;;;;;;2.74;100.00;100263.84;4974868;28;20055;-82
2020/12/31 01:55:48;;;;;;;18.50;8.35;;;;;;;2.69;100.00;100261.59;4959458;28;20047;-83
2020/12/31 01:58:14;;;;;;;16.77;8.45;;;;;;;2.59;100.00;100269.47;4958631;28;20106;-83
2020/12/31 02:00:39;;;;;;;22.08;10.07;;;;;;;2.60;100.00;100259.72;4958560;29;20054;-82
2020/12/31 02:03:04;;;;;;;23.27;9.77;;;;;;;2.58;100.00;100261.66;4974660;28;20040;-81
2020/12/31 02:05:30;;;;;;;25.92;10.48;;;;;;;2.59;100.00;100263.34;4960367;28;20028;-82
2020/12/31 02:07:56;;;;;;;27.20;10.80;;;;;;;2.59;100.00;100258.03;4978085;28;20239;-83
2020/12/31 02:10:21;;;;;;;22.00;10.88;;;;;;;2.58;100.00;100248.41;4960547;28;20035;-80
2020/12/31 02:12:47;;;;;;;25.85;10.88;;;;;;;2.55;100.00;100253.97;4977853;28;20031;-83
2020/12/31 02:15:15;;;;;;;22.48;10.80;;;;;;;2.54;100.00;100260.22;4945228;29;20099;-82
2020/12/31 02:17:43;;;;;;;28.70;12.10;;;;;;;2.55;100.00;100261.91;4976943;28;20043;-83
2020/12/31 02:20:10;;;;;;;25.08;11.65;;;;;;;2.56;100.00;100256.50;4960463;29;20043;-82
2020/12/31 02:22:36;;;;;;;26.23;11.63;;;;;;;2.58;100.00;100261.66;4960756;28;20363;-82
2020/12/31 02:25:02;;;;;;;27.52;11.50;;;;;;;2.56;100.00;100264.44;4960646;28;20019;-82
2020/12/31 02:27:28;;;;;;;24.90;12.00;;;;;;;2.58;100.00;100251.06;4960449;28;20047;-83
2020/12/31 02:29:53;;;;;;;28.67;12.57;;;;;;;2.60;100.00;100255.25;4960672;28;20039;-81
2020/12/31 02:32:19;;;;;;;31.85;13.15;;;;;;;2.64;100.00;100253.19;4963146;28;20046;-83
2020/12/31 02:34:45;;;;;;;28.20;12.55;;;;;;;2.65;100.00;100254.88;4975977;28;20381;-82
2020/12/31 02:37:11;;;;;;;32.65;13.63;;;;;;;2.66;100.00;100251.28;4976074;28;20098;-84
2020/12/31 02:39:36;;;;;;;29.17;13.10;;;;;;;2.68;100.00;100248.47;4977429;28;20384;-83
2020/12/31 02:42:02;;;;;;;30.10;12.90;;;;;;;2.65;100.00;100254.88;4977024;28;20095;-82
2020/12/31 02:44:28;;;;;;;32.85;13.07;;;;;;;2.67;100.00;100252.94;4962208;28;20035;-83
2020/12/31 02:46:53;;;;;;;32.40;12.57;;;;;;;2.69;100.00;100251.00;4961666;28;20024;-83
2020/12/31 02:49:19;;;;;;;33.63;12.88;;;;;;;2.70;100.00;100250.00;4976854;28;20032;-83
2020/12/31 02:51:47;;;;;;;23.80;11.38;;;;;;;2.68;100.00;100248.47;4942356;28;20502;-82
2020/12/31 02:54:13;;;;;;;32.28;12.35;;;;;;;2.63;100.00;100245.38;4961261;28;20027;-83
2020/12/31 02:56:38;;;;;;;28.60;12.48;;;;;;;2.64;100.00;100247.91;4976263;28;20033;-82
2020/12/31 02:59:04;;;;;;;28.52;12.35;;;;;;;2.66;100.00;100248.63;4960251;28;20137;-82
2020/12/31 03:01:34;;;;;;;27.98;11.98;;;;;;;2.66;100.00;100253.06;4976378;28;20497;-82
2020/12/31 03:04:01;;;;;;;29.33;12.10;;;;;;;2.66;100.00;100245.09;4961455;28;20200;-83
2020/12/31 03:06:27;;;;;;;29.27;11.18;;;;;;;2.61;100.00;100240.22;4976351;28;20042;-82
2020/12/31 03:08:52;;;;;;;24.52;10.50;;;;;;;2.64;100.00;100242.59;4962328;28;20031;-83
2020/12/31 03:11:26;;;;;;;31.17;9.85;;;;;;;2.62;100.00;100238.41;4973790;28;20091;-82
2020/12/31 03:13:52;;;;;;;25.40;9.75;;;;;;;2.62;100.00;100241.91;4974211;28;20086;-82
2020/12/31 03:16:19;;;;;;;28.63;9.35;;;;;;;2.63;100.00;100240.09;4971811;28;20027;-83
2020/12/31 03:18:45;;;;;;;19.38;8.75;;;;;;;2.66;100.00;100240.69;4958469;28;20458;-81
2020/12/31 03:21:11;;;;;;;17.77;7.55;;;;;;;2.69;100.00;100240.41;4958193;28;20527;-81
2020/12/31 03:23:36;;;;;;;17.48;6.70;;;;;;;2.66;100.00;100239.81;4972381;28;20035;-82
2020/12/31 03:26:02;;;;;;;18.65;6.72;;;;;;;2.63;100.00;100237.44;4955236;28;20444;-81
2020/12/31 03:28:27;;;;;;;15.63;6.47;;;;;;;2.60;100.00;100231.41;4972387;28;20031;-83
2020/12/31 03:30:53;;;;;;;11.80;5.75;;;;;;;2.60;100.00;100228.78;4954573;28;20038;-82
2020/12/31 03:33:19;;;;;;;10.73;5.35;;;;;;;2.59;100.00;100229.75;4962742;28;20043;-82
2020/12/31 03:35:46;;;;;;;14.27;5.13;;;;;;;2.58;100.00;100229.88;4956770;28;20046;-82
2020/12/31 03:38:14;;;;;;;12.18;5.20;;;;;;;2.60;100.00;100225.28;4971695;28;20028;-82
2020/12/31 03:40:39;;;;;;;14.50;5.65;;;;;;;2.59;100.00;100215.66;4956548;28;20075;-80
2020/12/31 03:43:06;;;;;;;18.30;6.47;;;;;;;2.58;100.00;100228.06;4939699;29;20066;-81
2020/12/31 03:45:32;;;;;;;22.20;7.78;;;;;;;2.61;100.00;100219.03;4971373;28;20023;-82
2020/12/31 03:47:59;;;;;;;21.20;8.63;;;;;;;2.64;100.00;100216.13;4956233;28;20417;-82
2020/12/31 03:50:24;;;;;;;18.52;7.75;;;;;;;2.66;100.00;100210.69;4955379;28;20024;-83
2020/12/31 03:52:50;;;;;;;20.35;8.27;;;;;;;2.66;100.00;100210.69;4970598;28;20065;-83
2020/12/31 03:55:16;;;;;;;22.27;8.15;;;;;;;2.63;100.00;100206.50;4970985;28;20058;-82
2020/12/31 03:57:42;;;;;;;23.48;8.30;;;;;;;2.65;100.00;100198.41;4954826;28;20042;-82
2020/12/31 04:00:07;;;;;;;19.58;8.50;;;;;;;2.65;100.00;100201.91;4953007;28;20074;-82
2020/12/31 04:02:33;;;;;;;17.63;7.82;;;;;;;2.64;100.00;100191.44;4953691;28;20089;-83
2020/12/31 04:04:59;;;;;;;18.85;7.72;;;;;;;2.64;100.00;100186.97;4952796;28;20027;-82
2020/12/31 04:07:25;;;;;;;18.85;7.72;;;;;;;2.65;100.00;100187.81;4969585;28;20023;-83
2020/12/31 04:09:50;;;;;;;19.42;7.47;;;;;;;2.66;100.00;100184.19;4953739;28;20101;-83
2020/12/31 04:12:16;;;;;;;22.45;7.43;;;;;;;2.65;100.00;100182.53;4954863;28;20035;-83
2020/12/31 04:14:42;;;;;;;14.13;6.40;;;;;;;2.63;100.00;100187.13;4969446;28;20046;-81
2020/12/31 04:17:07;;;;;;;19.00;7.25;;;;;;;2.60;100.00;100177.63;4969073;28;20038;-82
2020/12/31 04:19:33;;;;;;;20.85;8.35;;;;;;;2.60;100.00;100174.97;4969048;28;20043;-82
2020/12/31 04:21:58;;;;;;;16.15;7.03;;;;;;;2.58;100.00;100177.75;4953291;28;20031;-82
2020/12/31 04:24:24;;;;;;;12.00;5.82;;;;;;;2.59;100.00;100178.59;4952980;28;20035;-83
2020/12/31 04:26:51;;;;;;;10.75;4.72;;;;;;;2.53;100.00;100181.78;4967997;28;20096;-83
2020/12/31 04:29:17;;;;;;;14.95;5.00;;;;;;;2.53;100.00;100172.03;4953154;28;20043;-82
2020/12/31 04:31:42;;;;;;;10.88;4.38;;;;;;;2.52;100.00;100170.34;4968905;28;20523;-82
2020/12/31 04:34:08;;;;;;;7.07;3.92;;;;;;;2.49;100.00;100173.25;4954158;28;20063;-82
2020/12/31 04:36:34;;;;;;;11.52;4.50;;;;;;;2.48;100.00;100168.91;4968505;28;20031;-83
2020/12/31 04:38:59;;;;;;;11.00;4.22;;;;;;;2.43;100.00;100170.28;4953889;28;20039;-82
2020/12/31 04:41:25;;;;;;;8.25;4.40;;;;;;;2.42;100.00;100165.97;4953205;29;20118;-82
2020/12/31 04:43:50;;;;;;;10.35;4.03;;;;;;;2.43;100.00;100160.53;4953821;28;20027;-80
2020/12/31 04:46:20;;;;;;;9.82;4.28;;;;;;;2.41;100.00;100157.19;4953081;28;20031;-82
2020/12/31 04:48:54;;;;;;;9.48;3.88;;;;;;;2.45;100.00;100160.41;4968816;28;21267;-83
2020/12/31 04:51:24;;;;;;;11.00;4.67;;;;;;;2.44;100.00;100156.06;4954593;28;20129;-82
2020/12/31 04:53:50;;;;;;;8.82;3.80;;;;;;;2.36;100.00;100154.09;4952997;28;20279;-82
2020/12/31 04:56:18;;;;;;;7.65;3.45;;;;;;;2.39;100.00;100151.16;4968653;28;20031;-82
2020/12/31 04:58:44;;;;;;;8.40;3.35;;;;;;;2.38;100.00;100154.78;4952845;28;20485;-83
2020/12/31 05:01:10;;;;;;;6.18;3.60;;;;;;;2.38;100.00;100148.66;4954559;28;20042;-82
2020/12/31 05:03:35;;;;;;;6.00;3.33;;;;;;;2.39;100.00;100152.97;4952978;28;20457;-82
2020/12/31 05:06:03;;;;;;;8.00;3.17;;;;;;;2.31;100.00;100157.13;4968996;28;20031;-82
2020/12/31 05:08:30;;;;;;;9.40;3.80;;;;;;;2.34;100.00;100161.31;4968321;28;20401;-81
2020/12/31 05:10:58;;;;;;;7.53;2.95;;;;;;;2.34;100.00;100161.31;4954250;28;20098;-83
2020/12/31 05:13:24;;;;;;;8.32;3.45;;;;;;;2.34;100.00;100154.22;4952631;28;20038;-83
2020/12/31 05:15:50;;;;;;;11.48;4.85;;;;;;;2.38;100.00;100151.31;4953812;28;20043;-82
2020/12/31 05:18:19;;;;;;;5.30;3.05;;;;;;;2.40;100.00;100149.34;4968931;28;20448;-82
2020/12/31 05:20:47;;;;;;;6.28;2.97;;;;;;;2.31;100.00;100146.53;4953146;28;20039;-82
2020/12/31 05:23:13;;;;;;;5.60;2.40;;;;;;;2.24;100.00;100155.13;4953996;28;20032;-82
2020/12/31 05:25:39;;;;;;;4.93;1.98;;;;;;;2.21;100.00;100145.66;4953752;28;20122;-82
2020/12/31 05:28:25;;;;;;;3.05;1.85;;;;;;;2.16;100.00;100136.38;4952857;28;20114;-82
2020/12/31 05:30:53;;;;;;;3.83;2.28;;;;;;;2.18;100.00;100145.91;4952845;28;20147;-82
2020/12/31 05:33:30;;;;;;;5.00;2.25;;;;;;;2.16;100.00;100139.03;4953578;28;20037;-82
2020/12/31 05:36:16;;;;;;;3.42;1.75;;;;;;;2.13;100.00;100134.03;4953059;28;20048;-83
2020/12/31 05:38:44;;;;;;;2.28;1.52;;;;;;;2.08;100.00;100139.69;4968695;28;20058;-82
2020/12/31 05:41:11;;;;;;;4.07;1.83;;;;;;;2.05;100.00;100134.66;4971757;28;20041;-82
2020/12/31 05:43:37;;;;;;;5.47;1.90;;;;;;;2.05;100.00;100140.78;4972816;28;20039;-82
2020/12/31 05:46:06;;;;;;;3.90;2.20;;;;;;;2.05;100.00;100135.50;4972265;28;20032;-82
2020/12/31 05:48:31;;;;;;;4.25;2.45;;;;;;;2.03;100.00;100136.59;4971804;28;20477;-82
2020/12/31 05:50:57;;;;;;;7.13;2.78;;;;;;;2.01;100.00;100130.63;4955794;28;20114;-82
2020/12/31 05:53:23;;;;;;;5.03;2.63;;;;;;;2.00;100.00;100129.75;4971491;28;20066;-82
2020/12/31 05:55:54;;;;;;;5.10;2.88;;;;;;;2.01;100.00;100134.09;4955377;28;20039;-82
2020/12/31 05:58:23;;;;;;;5.57;2.92;;;;;;;2.00;100.00;100135.03;4956133;28;20094;-80
2020/12/31 06:01:00;;;;;;;7.05;2.72;;;;;;;2.03;100.00;100136.59;4971083;28;20396;-82
2020/12/31 06:03:36;;;;;;;5.78;3.13;;;;;;;2.04;100.00;100140.91;4970663;28;20034;-81
2020/12/31 06:06:05;;;;;;;4.70;3.05;;;;;;;2.04;100.00;100136.47;4954549;28;20050;-82
2020/12/31 06:08:33;;;;;;;5.22;2.70;;;;;;;2.06;100.00;100141.66;4956193;28;20042;-81
2020/12/31 06:11:03;;;;;;;6.03;3.05;;;;;;;2.06;100.00;100136.34;4957138;28;20421;-82
2020/12/31 06:13:37;;;;;;;5.35;3.00;;;;;;;2.08;100.00;100137.06;4971449;28;20046;-82
2020/12/31 06:16:04;;;;;;;5.82;2.92;;;;;;;2.05;100.00;100135.50;4956358;28;20126;-82
2020/12/31 06:18:32;;;;;;;5.07;2.80;;;;;;;2.07;100.00;100140.66;4971777;28;20039;-82
2020/12/31 06:21:02;;;;;;;6.82;2.78;;;;;;;2.06;100.00;100146.94;4971260;28;20035;-81
2020/12/31 06:23:37;;;;;;;5.90;2.90;;;;;;;2.07;100.00;100140.66;4956081;28;20118;-82
2020/12/31 06:26:13;;;;;;;6.22;3.08;;;;;;;2.10;100.00;100144.84;4955670;28;20031;-82
2020/12/31 06:28:45;;;;;;;7.85;2.92;;;;;;;2.11;100.00;100141.22;4956603;28;20088;-82
2020/12/31 06:31:10;;;;;;;5.57;2.67;;;;;;;2.15;100.00;100140.00;4952712;28;20074;-82
2020/12/31 06:33:45;;;;;;;4.75;2.53;;;;;;;2.18;100.00;100145.06;4965700;28;20070;-82
2020/12/31 06:36:12;;;;;;;4.95;2.70;;;;;;;2.13;100.00;100134.84;4960007;28;20028;-83
2020/12/31 06:38:43;;;;;;;4.55;2.42;;;;;;;2.07;100.00;100148.59;4957386;28;20039;-82
2020/12/31 06:41:30;;;;;;;5.18;2.80;;;;;;;2.03;100.00;100147.19;4972900;28;20563;-83
2020/12/31 06:44:12;;;;;;;6.15;4.07;;;;;;;1.99;100.00;100143.13;4957315;28;20023;-82
2020/12/31 06:46:45;;;;;;;5.10;2.85;;;;;;;1.98;100.00;100139.63;4954934;28;20035;-82
2020/12/31 06:49:12;;;;;;;6.10;3.65;;;;;;;1.98;100.00;100139.63;4970535;28;20031;-83
2020/12/31 06:51:38;;;;;;;6.97;3.10;;;;;;;1.97;100.00;100137.13;4968798;28;20042;-82
2020/12/31 06:54:04;;;;;;;5.95;3.45;;;;;;;1.93;100.00;100141.81;4956460;28;20070;-81
2020/12/31 06:56:43;;;;;;;11.02;4.13;;;;;;;1.89;100.00;100134.25;4957234;28;20042;-82
2020/12/31 06:59:25;;;;;;;6.47;3.80;;;;;;;1.88;100.00;100144.00;4956904;28;20042;-79
2020/12/31 07:01:51;;;;;;;11.10;4.95;;;;;;;1.87;100.00;100144.16;4973034;28;20039;-81
2020/12/31 07:04:30;;;;;;;8.82;4.00;;;;;;;1.90;100.00;100152.66;4957285;28;20027;-82
2020/12/31 07:06:57;;;;;;;9.77;3.90;;;;;;;1.90;100.00;100149.16;4956011;28;20532;-82
2020/12/31 07:09:36;;;;;;;8.82;4.55;;;;;;;1.89;100.00;100150.97;4972641;28;20097;-83
2020/12/31 07:12:05;;;;;;;8.35;3.92;;;;;;;1.90;100.00;100144.72;4938931;28;20038;-82
2020/12/31 07:14:33;;;;;;;6.47;3.20;;;;;;;1.91;100.00;100154.34;4948128;28;20070;-82
2020/12/31 07:17:06;;;;;;;5.80;3.67;;;;;;;1.89;100.00;100158.06;4953847;28;20031;-82
2020/12/31 07:19:34;;;;;;;6.70;3.75;;;;;;;1.83;100.00;100172.66;4955531;28;20118;-83
2020/12/31 07:22:01;;;;;;;8.27;3.75;;;;;;;1.79;100.00;100168.56;4952767;28;20059;-83
2020/12/31 07:24:28;;;;;;;7.55;4.30;;;;;;;1.80;100.00;100172.88;4966772;28;20041;-83
2020/12/31 07:26:57;;;;;;;10.23;4.80;;;;;;;1.82;100.00;100176.25;4952410;28;20114;-83
2020/12/31 07:29:25;;;;;;;10.43;4.78;;;;;;;1.86;100.00;100168.91;4954694;28;20039;-84
2020/12/31 07:31:51;;;;;;;7.05;4.10;;;;;;;1.89;100.00;100172.13;4963683;28;20082;-84
2020/12/31 07:34:20;;;;;;;7.95;4.35;;;;;;;1.91;100.00;100174.63;4951765;28;20035;-83
2020/12/31 07:36:56;;;;;;;9.82;5.15;;;;;;;1.91;100.00;100174.63;4966657;28;20039;-83
2020/12/31 07:39:22;;;;;;;12.23;6.38;;;;;;;1.91;100.00;100177.28;4967800;28;20114;-83
2020/12/31 07:41:47;;;;;;;13.73;6.40;;;;;;;1.96;100.00;100175.13;4953263;29;20075;-83
2020/12/31 07:44:13;;;;;;;13.73;6.15;;;;;;;1.97;100.00;100175.00;4952738;28;20469;-84
2020/12/31 07:46:39;;;;;;;15.68;6.05;;;;;;;1.99;100.00;100178.34;4968967;28;20086;-83
2020/12/31 07:49:11;;;;;;;16.10;6.80;;;;;;;1.97;100.00;100180.28;4965471;28;20073;-82
2020/12/31 07:51:36;;;;;;;16.48;7.18;;;;;;;1.98;100.00;100176.66;4951009;28;20058;-85
2020/12/31 07:54:02;;;;;;;11.63;6.40;;;;;;;1.98;100.00;100175.84;4951514;28;20035;-83
2020/12/31 07:56:29;;;;;;;13.23;7.38;;;;;;;1.97;100.00;100179.44;4952683;28;20035;-79
2020/12/31 07:58:57;;;;;;;12.88;7.13;;;;;;;1.97;100.00;100171.50;4968885;28;20102;-81
2020/12/31 08:01:23;;;;;;;13.88;7.65;;;;;;;1.95;100.00;100174.25;4953148;28;20051;-80
2020/12/31 08:03:49;;;;;;;16.42;7.82;;;;;;;1.95;100.00;100176.06;4966761;28;20106;-83
2020/12/31 08:06:14;;;;;;;16.67;7.82;;;;;;;1.93;100.00;100178.84;4952748;28;20397;-81
2020/12/31 08:08:41;;;;;;;15.43;8.57;;;;;;;1.92;100.00;100179.81;4969909;28;20046;-81
2020/12/31 08:11:08;;;;;;;14.07;8.40;;;;;;;1.90;100.00;100173.81;4954228;28;20027;-81
2020/12/31 08:13:35;;;;;;;16.52;8.40;;;;;;;1.89;100.00;100173.94;4966188;28;20534;-82
2020/12/31 08:16:01;;;;;;;16.88;8.43;;;;;;;1.85;100.00;100169.88;4964460;28;20488;-82
2020/12/31 08:18:26;;;;;;;20.23;9.00;;;;;;;1.83;100.00;100177.09;4965638;28;20094;-81
2020/12/31 08:20:53;;;;;;;15.35;8.13;;;;;;;1.78;100.00;100167.72;4964621;28;20034;-83
2020/12/31 08:23:24;;;;;;;15.43;7.75;;;;;;;1.84;100.00;100173.47;4959185;28;20054;-83
2020/12/31 08:25:52;;;;;;;15.50;8.00;;;;;;;1.82;100.00;100170.97;4958565;28;20094;-83
2020/12/31 08:28:21;;;;;;;17.90;8.63;;;;;;;1.78;100.00;100180.13;4950542;28;20082;-81
2020/12/31 08:30:47;;;;;;;13.98;7.47;;;;;;;1.74;100.00;100181.34;4967317;28;20028;-81
2020/12/31 08:33:13;;;;;;;15.43;7.93;;;;;;;1.76;100.00;100180.25;4951552;28;20050;-81
2020/12/31 08:35:41;;;;;;;15.60;8.13;;;;;;;1.79;100.00;100179.16;4951714;28;20035;-81
2020/12/31 08:38:09;;;;;;;14.55;8.07;;;;;;;1.82;100.00;100176.25;4969380;28;20054;-80
2020/12/31 08:40:48;;;;;;;17.60;8.43;;;;;;;1.81;100.00;100172.78;4954038;28;20050;-80
2020/12/31 08:43:20;;;;;;;15.80;8.30;;;;;;;1.80;100.00;100176.38;4953271;28;20062;-82
2020/12/31 08:45:47;;;;;;;17.95;9.48;;;;;;;1.76;100.00;100177.63;4953038;28;20433;-82
2020/12/31 08:48:15;;;;;;;15.70;7.63;;;;;;;1.76;100.00;100177.63;4970728;28;20122;-82
2020/12/31 08:50:41;;;;;;;16.45;8.80;;;;;;;1.77;100.00;100173.16;4953505;28;20122;-82
2020/12/31 08:53:07;;;;;;;17.85;8.65;;;;;;;1.76;100.00;100176.78;4952240;28;20067;-83
2020/12/31 08:55:35;;;;;;;16.75;8.57;;;;;;;1.78;100.00;100174.84;4952549;28;20381;-82
2020/12/31 08:58:14;;;;;;;19.27;10.10;;;;;;;1.77;100.00;100179.28;4963847;28;20042;-81
2020/12/31 09:00:40;;;;;;;18.75;9.60;;;;;;;1.77;100.00;100189.03;4939977;28;20133;-81
2020/12/31 09:03:06;;;;;;;22.25;9.80;;;;;;;1.83;100.00;100180.59;4952875;28;20039;-81
2020/12/31 09:05:32;;;;;;;34.92;10.85;;;;;;;1.82;100.00;100181.56;4953394;28;20031;-80
2020/12/31 09:08:02;;;;;;;16.95;8.93;;;;;;;1.81;100.00;100186.00;4953438;28;20035;-80
2020/12/31 09:10:31;;;;;;;23.23;10.45;;;;;;;1.83;100.00;100190.31;4953029;28;20039;-80
2020/12/31 09:12:56;;;;;;;18.58;9.30;;;;;;;1.86;100.00;100184.75;4968230;28;20062;-80
2020/12/31 09:15:22;;;;;;;20.95;10.63;;;;;;;1.89;100.00;100184.53;4955001;28;20106;-79
2020/12/31 09:17:48;;;;;;;19.83;9.32;;;;;;;1.93;100.00;100183.31;4956209;28;20039;-80
2020/12/31 09:20:20;;;;;;;20.88;10.63;;;;;;;1.93;100.00;100183.31;4957382;28;20106;-79
2020/12/31 09:22:45;;;;;;;20.95;10.20;;;;;;;1.93;100.00;100186.78;4959328;28;20047;-80
2020/12/31 09:25:12;;;;;;;27.42;12.02;;;;;;;1.95;100.00;100189.31;4967968;28;20458;-79
2020/12/31 09:27:39;;;;;;;26.58;11.75;;;;;;;1.99;100.00;100191.56;4956886;28;20033;-79
2020/12/31 09:30:06;;;;;;;73.70;37.75;;;;;;;2.02;100.00;100188.69;4956687;28;20031;-79
2020/12/31 09:32:32;;;;;;;23.70;12.60;;;;;;;2.14;100.00;100181.50;4944204;28;20045;-79
2020/12/31 09:34:59;;;;;;;22.92;11.35;;;;;;;2.26;100.00;100180.50;4957246;28;20370;-79
2020/12/31 09:37:24;;;;;;;18.83;9.02;;;;;;;2.34;100.00;100188.63;4955755;28;20504;-78
2020/12/31 09:39:50;;;;;;;17.95;9.52;;;;;;;2.40;100.00;100187.25;4956920;28;20047;-78
2020/12/31 09:42:16;;;;;;;20.92;10.77;;;;;;;2.43;100.00;100189.66;4956843;28;20136;-79
2020/12/31 09:44:42;;;;;;;23.92;10.88;;;;;;;2.44;100.00;100193.13;4956955;28;20031;-78
2020/12/31 09:47:07;;;;;;;19.50;10.75;;;;;;;2.42;100.00;100205.69;4956496;28;20035;-79
2020/12/31 09:49:33;;;;;;;24.17;11.60;;;;;;;2.33;100.00;100200.19;4957002;28;20082;-79
2020/12/31 09:52:00;;;;;;;21.05;10.10;;;;;;;2.29;100.00;100197.91;4956583;28;20035;-79
2020/12/31 09:54:26;;;;;;;17.90;9.05;;;;;;;2.35;100.00;100197.41;4956793;28;20437;-78
2020/12/31 09:56:51;;;;;;;21.13;11.00;;;;;;;2.27;100.00;100205.16;4956485;28;20035;-79
2020/12/31 09:59:17;;;;;;;18.35;8.90;;;;;;;2.27;100.00;100210.44;4958340;28;20062;-78
2020/12/31 10:01:44;;;;;;;18.25;9.27;;;;;;;2.25;100.00;100213.22;4956357;28;20035;-80
2020/12/31 10:04:10;;;;;;;17.65;9.27;;;;;;;2.23;100.00;100203.72;4955748;28;20320;-79
2020/12/31 10:06:35;;;;;;;20.42;9.48;;;;;;;2.22;100.00;100210.84;4955378;28;20036;-80
2020/12/31 10:09:01;;;;;;;20.33;9.68;;;;;;;2.22;100.00;100215.28;4956706;28;20094;-79
2020/12/31 10:11:28;;;;;;;16.25;9.00;;;;;;;2.30;100.00;100212.81;4957392;28;20235;-77
2020/12/31 10:13:54;;;;;;;19.75;9.32;;;;;;;2.33;100.00;100202.00;4956772;28;20089;-78
2020/12/31 10:16:20;;;;;;;18.75;8.93;;;;;;;2.33;100.00;100218.72;4955652;28;20493;-78
2020/12/31 10:18:45;;;;;;;16.38;8.70;;;;;;;2.28;100.00;100218.25;4958255;28;20043;-77
2020/12/31 10:21:13;;;;;;;19.42;10.50;;;;;;;2.25;100.00;100207.06;4959189;28;20035;-78
2020/12/31 10:23:38;;;;;;;17.33;8.65;;;;;;;2.27;100.00;100213.09;4974325;28;20047;-78
2020/12/31 10:26:04;;;;;;;19.17;9.25;;;;;;;2.25;100.00;100215.84;4972361;28;20024;-78
2020/12/31 10:28:29;;;;;;;17.10;9.02;;;;;;;2.34;100.00;100214.25;4959123;28;20023;-78
2020/12/31 10:30:55;;;;;;;17.00;9.05;;;;;;;2.28;100.00;100215.59;4959449;28;20027;-78
2020/12/31 10:33:20;;;;;;;18.88;9.10;;;;;;;2.31;100.00;100215.38;4974104;28;20122;-78
2020/12/31 10:35:46;;;;;;;18.15;9.55;;;;;;;2.35;100.00;100210.63;4957569;28;20039;-78
2020/12/31 10:38:11;;;;;;;19.52;9.68;;;;;;;2.52;100.00;100220.66;4968998;28;20400;-77
2020/12/31 10:40:37;;;;;;;16.75;9.50;;;;;;;2.60;100.00;100209.41;4954724;28;20325;-77
2020/12/31 10:43:03;;;;;;;16.35;8.85;;;;;;;2.62;100.00;100210.13;4954612;28;20062;-77
2020/12/31 10:45:28;;;;;;;15.60;8.75;;;;;;;2.60;100.00;100210.22;4953173;28;20110;-77
2020/12/31 10:47:54;;;;;;;16.83;9.15;;;;;;;2.76;100.00;100207.13;4952219;28;20094;-77
2020/12/31 10:50:19;;;;;;;12.65;7.43;;;;;;;2.83;100.00;100213.56;4954982;28;20035;-77
2020/12/31 10:52:45;;;;;;;15.55;8.05;;;;;;;2.85;100.00;100205.47;4962684;28;20031;-77
2020/12/31 10:55:11;;;;;;;17.45;7.93;;;;;;;2.75;100.00;100202.78;4951887;28;20035;-78
2020/12/31 10:57:37;;;;;;;14.70;7.85;;;;;;;2.67;100.00;100199.97;4951902;28;20035;-78
2020/12/31 11:00:03;;;;;;;15.10;8.57;;;;;;;2.64;100.00;100199.38;4951894;28;20035;-78
2020/12/31 11:02:28;;;;;;;15.18;8.45;;;;;;;2.68;100.00;100196.34;4950900;28;20039;-77
2020/12/31 11:04:54;;;;;;;18.30;8.60;;;;;;;2.66;100.00;100194.78;4967265;28;20388;-81
2020/12/31 11:07:19;;;;;;;12.95;7.47;;;;;;;2.77;100.00;100190.28;4967762;28;20035;-81
2020/12/31 11:09:45;;;;;;;15.45;7.32;;;;;;;2.75;100.00;100202.78;4968164;28;20027;-79
2020/12/31 11:12:10;;;;;;;12.27;7.07;;;;;;;2.61;100.00;100211.09;4953702;28;20031;-81
2020/12/31 11:14:36;;;;;;;12.88;6.90;;;;;;;2.78;100.00;100210.47;4953448;28;20119;-80
2020/12/31 11:17:01;;;;;;;14.65;7.75;;;;;;;2.97;100.00;100212.38;4952425;28;20932;-80